sensor_id;sensor_type;location;lat;lon;timestamp;temperature;humidity
4687;DHT22;2357;47.316;-1.348;2023-09-08T00:01:15;24.40;99.90
4687;DHT22;2357;47.316;-1.348;2023-09-08T00:03:41;24.40;99.90
4687;DHT22;2357;47.316;-1.348;2023-09-08T00:06:06;24.30;99.90
4687;DHT22;2357;47.316;-1.348;2023-09-08T00:08:32;24.20;99.90
4687;DHT22;2357;47.316;-1.348;2023-09-08T00:10:57;24.30;99.90
4687;DHT22;2357;47.316;-1.348;2023-09-08T00:13:23;24.30;99.90
4687;DHT22;2357;47.316;-1.348;2023-09-08T00:15:49;24.30;99.90
4687;DHT22;2357;47.316;-1.348;2023-09-08T00:18:14;24.30;99.90
4687;DHT22;2357;47.316;-1.348;2023-09-08T00:20:40;24.30;99.90
4687;DHT22;2357;47.316;-1.348;2023-09-08T00:23:07;24.20;99.90
4687;DHT22;2357;47.316;-1.348;2023-09-08T00:25:33;24.20;99.90
4687;DHT22;2357;47.316;-1.348;2023-09-08T00:28:00;24.20;99.90
4687;DHT22;2357;47.316;-1.348;2023-09-08T00:30:26;24.10;99.90
4687;DHT22;2357;47.316;-1.348;2023-09-08T00:32:51;23.90;99.90
4687;DHT22;2357;47.316;-1.348;2023-09-08T00:35:17;23.90;99.90
4687;DHT22;2357;47.316;-1.348;2023-09-08T00:37:43;23.90;99.90
4687;DHT22;2357;47.316;-1.348;2023-09-08T00:40:10;23.90;99.90
4687;DHT22;2357;47.316;-1.348;2023-09-08T00:42:36;24.00;99.90
4687;DHT22;2357;47.316;-1.348;2023-09-08T00:45:02;24.10;99.90
4687;DHT22;2357;47.316;-1.348;2023-09-08T00:47:28;24.00;99.90
4687;DHT22;2357;47.316;-1.348;2023-09-08T00:49:54;24.00;99.90
4687;DHT22;2357;47.316;-1.348;2023-09-08T00:52:20;24.00;99.90
4687;DHT22;2357;47.316;-1.348;2023-09-08T00:54:45;24.00;99.90
4687;DHT22;2357;47.316;-1.348;2023-09-08T00:57:11;23.90;99.90
4687;DHT22;2357;47.316;-1.348;2023-09-08T00:59:37;23.90;99.90
4687;DHT22;2357;47.316;-1.348;2023-09-08T01:02:03;23.80;99.90
4687;DHT22;2357;47.316;-1.348;2023-09-08T01:04:29;23.80;99.90
4687;DHT22;2357;47.316;-1.348;2023-09-08T01:06:56;23.80;99.90
4687;DHT22;2357;47.316;-1.348;2023-09-08T01:09:22;23.70;99.90
4687;DHT22;2357;47.316;-1.348;2023-09-08T01:11:48;23.70;99.90
4687;DHT22;2357;47.316;-1.348;2023-09-08T01:14:20;23.70;99.90
4687;DHT22;2357;47.316;-1.348;2023-09-08T01:16:46;23.70;99.90
4687;DHT22;2357;47.316;-1.348;2023-09-08T01:19:14;23.70;99.90
4687;DHT22;2357;47.316;-1.348;2023-09-08T01:21:52;23.70;99.90
4687;DHT22;2357;47.316;-1.348;2023-09-08T01:27:07;23.60;99.90
4687;DHT22;2357;47.316;-1.348;2023-09-08T01:29:34;23.60;99.90
4687;DHT22;2357;47.316;-1.348;2023-09-08T01:32:00;23.60;99.90
4687;DHT22;2357;47.316;-1.348;2023-09-08T01:34:26;23.60;99.90
4687;DHT22;2357;47.316;-1.348;2023-09-08T01:36:52;23.60;99.90
4687;DHT22;2357;47.316;-1.348;2023-09-08T01:39:17;23.50;99.90
4687;DHT22;2357;47.316;-1.348;2023-09-08T01:41:43;23.60;99.90
4687;DHT22;2357;47.316;-1.348;2023-09-08T01:44:09;23.50;99.90
4687;DHT22;2357;47.316;-1.348;2023-09-08T01:46:35;23.50;99.90
4687;DHT22;2357;47.316;-1.348;2023-09-08T01:49:01;23.30;99.90
4687;DHT22;2357;47.316;-1.348;2023-09-08T01:51:27;23.30;99.90
4687;DHT22;2357;47.316;-1.348;2023-09-08T01:53:52;23.30;99.90
4687;DHT22;2357;47.316;-1.348;2023-09-08T01:56:18;23.30;99.90
4687;DHT22;2357;47.316;-1.348;2023-09-08T01:58:44;23.30;99.90
4687;DHT22;2357;47.316;-1.348;2023-09-08T02:01:09;23.30;99.90
4687;DHT22;2357;47.316;-1.348;2023-09-08T02:03:35;23.30;99.90
4687;DHT22;2357;47.316;-1.348;2023-09-08T02:06:00;23.30;99.90
4687;DHT22;2357;47.316;-1.348;2023-09-08T02:08:26;23.20;99.90
4687;DHT22;2357;47.316;-1.348;2023-09-08T02:10:52;23.20;99.90
4687;DHT22;2357;47.316;-1.348;2023-09-08T02:13:17;23.20;99.90
4687;DHT22;2357;47.316;-1.348;2023-09-08T02:15:43;23.20;99.90
4687;DHT22;2357;47.316;-1.348;2023-09-08T02:18:08;23.10;99.90
4687;DHT22;2357;47.316;-1.348;2023-09-08T02:20:34;23.20;99.90
4687;DHT22;2357;47.316;-1.348;2023-09-08T02:23:05;23.10;99.90
4687;DHT22;2357;47.316;-1.348;2023-09-08T02:25:31;23.10;99.90
4687;DHT22;2357;47.316;-1.348;2023-09-08T02:27:56;23.10;99.90
4687;DHT22;2357;47.316;-1.348;2023-09-08T02:30:22;23.10;99.90
4687;DHT22;2357;47.316;-1.348;2023-09-08T02:32:48;23.10;99.90
4687;DHT22;2357;47.316;-1.348;2023-09-08T02:35:15;23.10;99.90
4687;DHT22;2357;47.316;-1.348;2023-09-08T02:37:40;23.00;99.90
4687;DHT22;2357;47.316;-1.348;2023-09-08T02:40:06;23.00;99.90
4687;DHT22;2357;47.316;-1.348;2023-09-08T02:42:32;23.00;99.90
4687;DHT22;2357;47.316;-1.348;2023-09-08T02:44:58;23.00;99.90
4687;DHT22;2357;47.316;-1.348;2023-09-08T02:47:23;22.90;99.90
4687;DHT22;2357;47.316;-1.348;2023-09-08T02:49:49;22.90;99.90
4687;DHT22;2357;47.316;-1.348;2023-09-08T02:52:15;22.90;99.90
4687;DHT22;2357;47.316;-1.348;2023-09-08T02:54:40;22.80;99.90
4687;DHT22;2357;47.316;-1.348;2023-09-08T02:57:06;22.80;99.90
4687;DHT22;2357;47.316;-1.348;2023-09-08T02:59:32;22.80;99.90
4687;DHT22;2357;47.316;-1.348;2023-09-08T03:01:59;22.80;99.90
4687;DHT22;2357;47.316;-1.348;2023-09-08T03:04:25;22.70;99.90
4687;DHT22;2357;47.316;-1.348;2023-09-08T03:06:50;22.80;99.90
4687;DHT22;2357;47.316;-1.348;2023-09-08T03:09:16;22.80;99.90
4687;DHT22;2357;47.316;-1.348;2023-09-08T03:11:41;22.70;99.90
4687;DHT22;2357;47.316;-1.348;2023-09-08T03:14:07;22.70;99.90
4687;DHT22;2357;47.316;-1.348;2023-09-08T03:16:33;22.70;99.90
4687;DHT22;2357;47.316;-1.348;2023-09-08T03:18:59;22.70;99.90
4687;DHT22;2357;47.316;-1.348;2023-09-08T03:21:24;22.70;99.90
4687;DHT22;2357;47.316;-1.348;2023-09-08T03:23:50;22.60;99.90
4687;DHT22;2357;47.316;-1.348;2023-09-08T03:26:15;22.60;99.90
4687;DHT22;2357;47.316;-1.348;2023-09-08T03:28:42;22.60;99.90
4687;DHT22;2357;47.316;-1.348;2023-09-08T03:31:08;22.60;99.90
4687;DHT22;2357;47.316;-1.348;2023-09-08T03:33:34;22.60;99.90
4687;DHT22;2357;47.316;-1.348;2023-09-08T03:36:00;22.50;99.90
4687;DHT22;2357;47.316;-1.348;2023-09-08T03:38:26;22.50;99.90
4687;DHT22;2357;47.316;-1.348;2023-09-08T03:40:52;22.40;99.90
4687;DHT22;2357;47.316;-1.348;2023-09-08T03:43:18;22.30;99.90
4687;DHT22;2357;47.316;-1.348;2023-09-08T03:45:43;22.40;99.90
4687;DHT22;2357;47.316;-1.348;2023-09-08T03:48:09;22.40;99.90
4687;DHT22;2357;47.316;-1.348;2023-09-08T03:50:35;22.30;99.90
4687;DHT22;2357;47.316;-1.348;2023-09-08T03:53:01;22.30;99.90
4687;DHT22;2357;47.316;-1.348;2023-09-08T03:55:26;22.30;99.90
4687;DHT22;2357;47.316;-1.348;2023-09-08T03:57:52;22.30;99.90
4687;DHT22;2357;47.316;-1.348;2023-09-08T04:00:18;22.30;99.90
4687;DHT22;2357;47.316;-1.348;2023-09-08T04:02:50;22.30;99.90
4687;DHT22;2357;47.316;-1.348;2023-09-08T04:05:17;22.20;99.90
4687;DHT22;2357;47.316;-1.348;2023-09-08T04:07:46;22.20;99.90
4687;DHT22;2357;47.316;-1.348;2023-09-08T04:10:12;22.20;99.90
4687;DHT22;2357;47.316;-1.348;2023-09-08T04:12:39;22.20;99.90
4687;DHT22;2357;47.316;-1.348;2023-09-08T04:15:05;22.20;99.90
4687;DHT22;2357;47.316;-1.348;2023-09-08T04:17:30;22.20;99.90
4687;DHT22;2357;47.316;-1.348;2023-09-08T04:19:57;22.20;99.90
4687;DHT22;2357;47.316;-1.348;2023-09-08T04:22:22;22.10;99.90
4687;DHT22;2357;47.316;-1.348;2023-09-08T04:24:48;22.20;99.90
4687;DHT22;2357;47.316;-1.348;2023-09-08T04:27:13;22.10;99.90
4687;DHT22;2357;47.316;-1.348;2023-09-08T04:29:39;22.10;99.90
4687;DHT22;2357;47.316;-1.348;2023-09-08T04:32:05;22.00;99.90
4687;DHT22;2357;47.316;-1.348;2023-09-08T04:34:38;22.00;99.90
4687;DHT22;2357;47.316;-1.348;2023-09-08T04:37:04;22.00;99.90
4687;DHT22;2357;47.316;-1.348;2023-09-08T04:39:30;21.90;99.90
4687;DHT22;2357;47.316;-1.348;2023-09-08T04:41:55;21.90;99.90
4687;DHT22;2357;47.316;-1.348;2023-09-08T04:44:21;21.90;99.90
4687;DHT22;2357;47.316;-1.348;2023-09-08T04:46:46;21.90;99.90
4687;DHT22;2357;47.316;-1.348;2023-09-08T04:49:12;21.90;99.90
4687;DHT22;2357;47.316;-1.348;2023-09-08T04:51:38;21.90;99.90
4687;DHT22;2357;47.316;-1.348;2023-09-08T04:54:03;21.90;99.90
4687;DHT22;2357;47.316;-1.348;2023-09-08T04:56:29;21.90;99.90
4687;DHT22;2357;47.316;-1.348;2023-09-08T04:58:55;21.50;99.90
4687;DHT22;2357;47.316;-1.348;2023-09-08T05:01:21;21.70;99.90
4687;DHT22;2357;47.316;-1.348;2023-09-08T05:03:47;21.70;99.90
4687;DHT22;2357;47.316;-1.348;2023-09-08T05:06:12;21.70;99.90
4687;DHT22;2357;47.316;-1.348;2023-09-08T05:08:39;21.80;99.90
4687;DHT22;2357;47.316;-1.348;2023-09-08T05:11:05;21.90;99.90
4687;DHT22;2357;47.316;-1.348;2023-09-08T05:13:30;21.80;99.90
4687;DHT22;2357;47.316;-1.348;2023-09-08T05:15:56;21.90;99.90
4687;DHT22;2357;47.316;-1.348;2023-09-08T05:18:26;21.90;99.90
4687;DHT22;2357;47.316;-1.348;2023-09-08T05:20:52;21.90;99.90
4687;DHT22;2357;47.316;-1.348;2023-09-08T05:23:18;21.90;99.90
4687;DHT22;2357;47.316;-1.348;2023-09-08T05:25:45;21.80;99.90
4687;DHT22;2357;47.316;-1.348;2023-09-08T05:28:10;21.90;99.90
4687;DHT22;2357;47.316;-1.348;2023-09-08T05:30:36;21.80;99.90
4687;DHT22;2357;47.316;-1.348;2023-09-08T05:33:01;21.80;99.90
4687;DHT22;2357;47.316;-1.348;2023-09-08T05:35:27;21.90;99.90
4687;DHT22;2357;47.316;-1.348;2023-09-08T05:37:53;21.90;99.90
4687;DHT22;2357;47.316;-1.348;2023-09-08T05:40:18;21.90;99.90
4687;DHT22;2357;47.316;-1.348;2023-09-08T05:42:45;21.90;99.90
4687;DHT22;2357;47.316;-1.348;2023-09-08T05:45:11;21.90;99.90
4687;DHT22;2357;47.316;-1.348;2023-09-08T05:47:36;21.90;99.90
4687;DHT22;2357;47.316;-1.348;2023-09-08T05:50:02;21.90;99.90
4687;DHT22;2357;47.316;-1.348;2023-09-08T05:52:28;21.90;99.90
4687;DHT22;2357;47.316;-1.348;2023-09-08T05:54:53;21.90;99.90
4687;DHT22;2357;47.316;-1.348;2023-09-08T05:57:19;21.80;99.90
4687;DHT22;2357;47.316;-1.348;2023-09-08T05:59:45;21.90;99.90
4687;DHT22;2357;47.316;-1.348;2023-09-08T06:02:10;21.90;99.90
4687;DHT22;2357;47.316;-1.348;2023-09-08T06:04:36;21.90;99.90
4687;DHT22;2357;47.316;-1.348;2023-09-08T06:07:02;21.90;99.90
4687;DHT22;2357;47.316;-1.348;2023-09-08T06:09:27;22.00;99.90
4687;DHT22;2357;47.316;-1.348;2023-09-08T06:11:53;22.00;99.90
4687;DHT22;2357;47.316;-1.348;2023-09-08T06:14:18;22.10;99.90
4687;DHT22;2357;47.316;-1.348;2023-09-08T06:16:44;22.10;99.90
4687;DHT22;2357;47.316;-1.348;2023-09-08T06:19:12;22.10;99.90
4687;DHT22;2357;47.316;-1.348;2023-09-08T06:21:37;22.20;99.90
4687;DHT22;2357;47.316;-1.348;2023-09-08T06:24:03;22.20;99.90
4687;DHT22;2357;47.316;-1.348;2023-09-08T06:26:29;22.20;99.90
4687;DHT22;2357;47.316;-1.348;2023-09-08T06:28:54;22.20;99.90
4687;DHT22;2357;47.316;-1.348;2023-09-08T06:31:20;22.20;99.90
4687;DHT22;2357;47.316;-1.348;2023-09-08T06:33:45;22.20;99.90
4687;DHT22;2357;47.316;-1.348;2023-09-08T06:36:11;22.30;99.90
4687;DHT22;2357;47.316;-1.348;2023-09-08T06:38:37;22.30;99.90
4687;DHT22;2357;47.316;-1.348;2023-09-08T06:41:09;22.30;99.90
4687;DHT22;2357;47.316;-1.348;2023-09-08T06:43:35;22.40;99.90
4687;DHT22;2357;47.316;-1.348;2023-09-08T06:46:01;22.50;99.90
4687;DHT22;2357;47.316;-1.348;2023-09-08T06:48:26;22.40;99.90
4687;DHT22;2357;47.316;-1.348;2023-09-08T06:50:55;22.40;99.90
4687;DHT22;2357;47.316;-1.348;2023-09-08T06:53:22;22.50;99.90
4687;DHT22;2357;47.316;-1.348;2023-09-08T06:55:48;22.40;99.90
4687;DHT22;2357;47.316;-1.348;2023-09-08T06:58:14;22.50;99.90
4687;DHT22;2357;47.316;-1.348;2023-09-08T07:00:43;22.50;99.90
4687;DHT22;2357;47.316;-1.348;2023-09-08T07:03:08;22.60;99.90
4687;DHT22;2357;47.316;-1.348;2023-09-08T07:05:35;22.50;99.90
4687;DHT22;2357;47.316;-1.348;2023-09-08T07:08:01;22.60;99.90
4687;DHT22;2357;47.316;-1.348;2023-09-08T07:10:26;22.70;99.90
4687;DHT22;2357;47.316;-1.348;2023-09-08T07:12:52;22.70;99.90
4687;DHT22;2357;47.316;-1.348;2023-09-08T07:15:17;22.80;99.90
4687;DHT22;2357;47.316;-1.348;2023-09-08T07:17:43;22.80;99.90
4687;DHT22;2357;47.316;-1.348;2023-09-08T07:20:09;22.90;99.90
4687;DHT22;2357;47.316;-1.348;2023-09-08T07:22:35;23.00;99.90
4687;DHT22;2357;47.316;-1.348;2023-09-08T07:25:00;23.00;99.90
4687;DHT22;2357;47.316;-1.348;2023-09-08T07:27:26;23.00;99.90
4687;DHT22;2357;47.316;-1.348;2023-09-08T07:29:52;23.10;99.90
4687;DHT22;2357;47.316;-1.348;2023-09-08T07:32:18;23.10;99.90
4687;DHT22;2357;47.316;-1.348;2023-09-08T07:34:44;23.10;99.90
4687;DHT22;2357;47.316;-1.348;2023-09-08T07:37:09;23.20;99.90
4687;DHT22;2357;47.316;-1.348;2023-09-08T07:39:35;23.20;99.90
4687;DHT22;2357;47.316;-1.348;2023-09-08T07:42:01;23.30;99.90
4687;DHT22;2357;47.316;-1.348;2023-09-08T07:44:27;23.40;99.90
4687;DHT22;2357;47.316;-1.348;2023-09-08T07:46:53;23.40;99.90
4687;DHT22;2357;47.316;-1.348;2023-09-08T07:49:20;23.50;99.90
4687;DHT22;2357;47.316;-1.348;2023-09-08T07:51:47;23.50;99.90
4687;DHT22;2357;47.316;-1.348;2023-09-08T07:54:13;23.50;99.90
4687;DHT22;2357;47.316;-1.348;2023-09-08T07:56:39;23.60;99.90
4687;DHT22;2357;47.316;-1.348;2023-09-08T07:59:06;23.70;99.90
4687;DHT22;2357;47.316;-1.348;2023-09-08T08:01:32;23.60;99.90
4687;DHT22;2357;47.316;-1.348;2023-09-08T08:03:58;23.70;99.90
4687;DHT22;2357;47.316;-1.348;2023-09-08T08:06:23;23.80;99.90
4687;DHT22;2357;47.316;-1.348;2023-09-08T08:08:49;24.00;99.90
4687;DHT22;2357;47.316;-1.348;2023-09-08T08:11:16;24.20;99.90
4687;DHT22;2357;47.316;-1.348;2023-09-08T08:13:43;24.20;99.90
4687;DHT22;2357;47.316;-1.348;2023-09-08T08:16:09;24.20;99.90
4687;DHT22;2357;47.316;-1.348;2023-09-08T08:18:34;24.30;99.90
4687;DHT22;2357;47.316;-1.348;2023-09-08T08:21:00;24.40;99.90
4687;DHT22;2357;47.316;-1.348;2023-09-08T08:23:28;24.50;99.90
4687;DHT22;2357;47.316;-1.348;2023-09-08T08:25:54;24.50;99.90
4687;DHT22;2357;47.316;-1.348;2023-09-08T08:28:19;24.30;99.90
4687;DHT22;2357;47.316;-1.348;2023-09-08T08:30:45;24.30;99.90
4687;DHT22;2357;47.316;-1.348;2023-09-08T08:33:13;24.40;99.90
4687;DHT22;2357;47.316;-1.348;2023-09-08T08:35:39;24.50;99.90
4687;DHT22;2357;47.316;-1.348;2023-09-08T08:38:05;24.50;99.90
4687;DHT22;2357;47.316;-1.348;2023-09-08T08:40:31;24.60;99.90
4687;DHT22;2357;47.316;-1.348;2023-09-08T08:42:57;24.80;99.90
4687;DHT22;2357;47.316;-1.348;2023-09-08T08:45:24;24.90;99.90
4687;DHT22;2357;47.316;-1.348;2023-09-08T08:47:51;25.00;99.90
4687;DHT22;2357;47.316;-1.348;2023-09-08T08:50:17;25.00;99.90
4687;DHT22;2357;47.316;-1.348;2023-09-08T08:52:44;25.00;99.90
4687;DHT22;2357;47.316;-1.348;2023-09-08T08:55:10;25.00;99.90
4687;DHT22;2357;47.316;-1.348;2023-09-08T08:57:39;25.00;99.90
4687;DHT22;2357;47.316;-1.348;2023-09-08T09:00:09;25.10;99.90
4687;DHT22;2357;47.316;-1.348;2023-09-08T09:02:39;25.20;99.90
4687;DHT22;2357;47.316;-1.348;2023-09-08T09:05:05;25.20;99.90
4687;DHT22;2357;47.316;-1.348;2023-09-08T09:07:32;25.40;99.90
4687;DHT22;2357;47.316;-1.348;2023-09-08T09:09:58;25.40;99.90
4687;DHT22;2357;47.316;-1.348;2023-09-08T09:12:24;25.40;99.90
4687;DHT22;2357;47.316;-1.348;2023-09-08T09:14:53;25.60;99.90
4687;DHT22;2357;47.316;-1.348;2023-09-08T09:17:19;25.60;99.90
4687;DHT22;2357;47.316;-1.348;2023-09-08T09:19:44;25.60;99.90
4687;DHT22;2357;47.316;-1.348;2023-09-08T09:22:10;25.60;99.90
4687;DHT22;2357;47.316;-1.348;2023-09-08T09:24:38;25.70;99.90
4687;DHT22;2357;47.316;-1.348;2023-09-08T09:27:06;25.80;99.90
4687;DHT22;2357;47.316;-1.348;2023-09-08T09:29:33;25.90;99.90
4687;DHT22;2357;47.316;-1.348;2023-09-08T09:32:06;26.00;99.90
4687;DHT22;2357;47.316;-1.348;2023-09-08T09:34:33;25.90;99.90
4687;DHT22;2357;47.316;-1.348;2023-09-08T09:36:59;26.10;99.90
4687;DHT22;2357;47.316;-1.348;2023-09-08T09:39:26;26.20;99.90
4687;DHT22;2357;47.316;-1.348;2023-09-08T09:41:56;26.50;99.90
4687;DHT22;2357;47.316;-1.348;2023-09-08T09:44:23;26.50;99.90
4687;DHT22;2357;47.316;-1.348;2023-09-08T09:46:52;26.50;99.90
4687;DHT22;2357;47.316;-1.348;2023-09-08T09:49:18;26.30;99.90
4687;DHT22;2357;47.316;-1.348;2023-09-08T09:51:48;26.20;99.90
4687;DHT22;2357;47.316;-1.348;2023-09-08T09:54:14;26.20;99.90
4687;DHT22;2357;47.316;-1.348;2023-09-08T09:56:41;26.20;99.90
4687;DHT22;2357;47.316;-1.348;2023-09-08T09:59:11;26.20;99.90
4687;DHT22;2357;47.316;-1.348;2023-09-08T10:01:39;26.20;99.90
4687;DHT22;2357;47.316;-1.348;2023-09-08T10:04:05;26.20;99.90
4687;DHT22;2357;47.316;-1.348;2023-09-08T10:06:33;26.10;99.90
4687;DHT22;2357;47.316;-1.348;2023-09-08T10:09:00;26.10;99.90
4687;DHT22;2357;47.316;-1.348;2023-09-08T10:11:29;26.20;99.90
4687;DHT22;2357;47.316;-1.348;2023-09-08T10:13:59;26.20;99.90
4687;DHT22;2357;47.316;-1.348;2023-09-08T10:16:27;26.30;99.90
4687;DHT22;2357;47.316;-1.348;2023-09-08T10:18:55;26.50;99.90
4687;DHT22;2357;47.316;-1.348;2023-09-08T10:21:23;26.50;99.90
4687;DHT22;2357;47.316;-1.348;2023-09-08T10:23:57;26.60;99.90
4687;DHT22;2357;47.316;-1.348;2023-09-08T10:26:27;26.60;99.90
4687;DHT22;2357;47.316;-1.348;2023-09-08T10:28:54;26.60;99.90
4687;DHT22;2357;47.316;-1.348;2023-09-08T10:31:26;26.60;99.90
4687;DHT22;2357;47.316;-1.348;2023-09-08T10:33:56;26.70;99.90
4687;DHT22;2357;47.316;-1.348;2023-09-08T10:36:25;26.80;99.90
4687;DHT22;2357;47.316;-1.348;2023-09-08T10:38:51;26.80;99.90
4687;DHT22;2357;47.316;-1.348;2023-09-08T10:43:44;27.10;99.90
4687;DHT22;2357;47.316;-1.348;2023-09-08T10:46:11;27.30;99.90
4687;DHT22;2357;47.316;-1.348;2023-09-08T10:48:43;27.30;99.90
4687;DHT22;2357;47.316;-1.348;2023-09-08T10:51:18;27.40;99.90
4687;DHT22;2357;47.316;-1.348;2023-09-08T10:53:47;27.50;99.90
4687;DHT22;2357;47.316;-1.348;2023-09-08T10:56:13;27.60;99.90
4687;DHT22;2357;47.316;-1.348;2023-09-08T10:58:38;27.60;99.90
4687;DHT22;2357;47.316;-1.348;2023-09-08T11:01:06;27.60;99.90
4687;DHT22;2357;47.316;-1.348;2023-09-08T11:06:05;28.20;99.90
4687;DHT22;2357;47.316;-1.348;2023-09-08T11:08:33;28.20;99.90
4687;DHT22;2357;47.316;-1.348;2023-09-08T11:10:59;28.30;99.90
4687;DHT22;2357;47.316;-1.348;2023-09-08T11:13:26;28.30;99.90
4687;DHT22;2357;47.316;-1.348;2023-09-08T11:15:53;28.50;99.90
4687;DHT22;2357;47.316;-1.348;2023-09-08T11:18:26;28.50;99.90
4687;DHT22;2357;47.316;-1.348;2023-09-08T11:20:52;28.50;99.90
4687;DHT22;2357;47.316;-1.348;2023-09-08T11:23:18;28.60;99.90
4687;DHT22;2357;47.316;-1.348;2023-09-08T11:25:45;28.60;99.90
4687;DHT22;2357;47.316;-1.348;2023-09-08T11:28:11;28.70;99.90
4687;DHT22;2357;47.316;-1.348;2023-09-08T11:30:39;28.80;99.90
4687;DHT22;2357;47.316;-1.348;2023-09-08T11:33:04;28.90;99.90
4687;DHT22;2357;47.316;-1.348;2023-09-08T11:35:32;29.10;99.90
4687;DHT22;2357;47.316;-1.348;2023-09-08T11:38:01;29.10;99.90
4687;DHT22;2357;47.316;-1.348;2023-09-08T11:40:27;29.10;99.90
4687;DHT22;2357;47.316;-1.348;2023-09-08T11:42:53;29.10;99.90
4687;DHT22;2357;47.316;-1.348;2023-09-08T11:45:19;29.10;99.90
4687;DHT22;2357;47.316;-1.348;2023-09-08T11:47:48;29.20;99.90
4687;DHT22;2357;47.316;-1.348;2023-09-08T11:50:18;29.40;99.90
4687;DHT22;2357;47.316;-1.348;2023-09-08T11:52:49;29.40;99.90
4687;DHT22;2357;47.316;-1.348;2023-09-08T11:55:15;29.50;99.90
4687;DHT22;2357;47.316;-1.348;2023-09-08T11:57:43;29.80;99.90
4687;DHT22;2357;47.316;-1.348;2023-09-08T12:00:10;29.80;99.90
4687;DHT22;2357;47.316;-1.348;2023-09-08T12:02:40;29.80;99.90
4687;DHT22;2357;47.316;-1.348;2023-09-08T12:05:10;29.70;99.90
4687;DHT22;2357;47.316;-1.348;2023-09-08T12:07:37;29.70;99.90
4687;DHT22;2357;47.316;-1.348;2023-09-08T12:10:10;29.70;99.90
4687;DHT22;2357;47.316;-1.348;2023-09-08T12:12:46;30.00;99.90
4687;DHT22;2357;47.316;-1.348;2023-09-08T12:15:38;30.20;99.90
4687;DHT22;2357;47.316;-1.348;2023-09-08T12:18:12;30.30;99.90
4687;DHT22;2357;47.316;-1.348;2023-09-08T12:20:39;30.60;99.90
4687;DHT22;2357;47.316;-1.348;2023-09-08T12:23:06;30.80;99.90
4687;DHT22;2357;47.316;-1.348;2023-09-08T12:25:47;30.70;99.90
4687;DHT22;2357;47.316;-1.348;2023-09-08T12:28:13;30.80;99.90
4687;DHT22;2357;47.316;-1.348;2023-09-08T12:30:39;31.00;99.90
4687;DHT22;2357;47.316;-1.348;2023-09-08T12:33:05;31.20;99.90
4687;DHT22;2357;47.316;-1.348;2023-09-08T12:35:31;31.20;99.90
4687;DHT22;2357;47.316;-1.348;2023-09-08T12:38:00;31.40;99.90
4687;DHT22;2357;47.316;-1.348;2023-09-08T12:40:32;31.50;99.90
4687;DHT22;2357;47.316;-1.348;2023-09-08T12:42:58;31.40;99.90
4687;DHT22;2357;47.316;-1.348;2023-09-08T12:45:26;31.50;99.90
4687;DHT22;2357;47.316;-1.348;2023-09-08T12:47:53;31.60;99.90
4687;DHT22;2357;47.316;-1.348;2023-09-08T12:50:23;31.70;99.90
4687;DHT22;2357;47.316;-1.348;2023-09-08T12:52:49;32.00;99.90
4687;DHT22;2357;47.316;-1.348;2023-09-08T12:55:14;32.10;99.90
4687;DHT22;2357;47.316;-1.348;2023-09-08T12:57:40;32.20;99.90
4687;DHT22;2357;47.316;-1.348;2023-09-08T13:00:06;32.00;99.90
4687;DHT22;2357;47.316;-1.348;2023-09-08T13:02:33;32.20;99.90
4687;DHT22;2357;47.316;-1.348;2023-09-08T13:04:59;32.20;99.90
4687;DHT22;2357;47.316;-1.348;2023-09-08T13:07:24;32.00;99.90
4687;DHT22;2357;47.316;-1.348;2023-09-08T13:09:51;32.20;99.90
4687;DHT22;2357;47.316;-1.348;2023-09-08T13:12:17;32.20;99.90
4687;DHT22;2357;47.316;-1.348;2023-09-08T13:14:43;32.30;99.90
4687;DHT22;2357;47.316;-1.348;2023-09-08T13:17:11;32.60;99.90
4687;DHT22;2357;47.316;-1.348;2023-09-08T13:19:36;32.70;99.90
4687;DHT22;2357;47.316;-1.348;2023-09-08T13:22:04;32.80;99.90
4687;DHT22;2357;47.316;-1.348;2023-09-08T13:24:30;32.70;99.90
4687;DHT22;2357;47.316;-1.348;2023-09-08T13:26:56;32.90;99.90
4687;DHT22;2357;47.316;-1.348;2023-09-08T13:29:21;33.00;99.90
4687;DHT22;2357;47.316;-1.348;2023-09-08T13:31:47;32.80;99.90
4687;DHT22;2357;47.316;-1.348;2023-09-08T13:34:13;32.90;99.90
4687;DHT22;2357;47.316;-1.348;2023-09-08T13:36:39;33.10;99.90
4687;DHT22;2357;47.316;-1.348;2023-09-08T13:39:04;33.10;99.90
4687;DHT22;2357;47.316;-1.348;2023-09-08T13:41:53;33.30;99.90
4687;DHT22;2357;47.316;-1.348;2023-09-08T13:44:20;33.40;99.90
4687;DHT22;2357;47.316;-1.348;2023-09-08T13:46:49;33.50;99.90
4687;DHT22;2357;47.316;-1.348;2023-09-08T13:49:16;33.70;99.90
4687;DHT22;2357;47.316;-1.348;2023-09-08T13:51:42;33.60;99.90
4687;DHT22;2357;47.316;-1.348;2023-09-08T13:54:08;33.60;99.90
4687;DHT22;2357;47.316;-1.348;2023-09-08T13:56:34;33.60;99.90
4687;DHT22;2357;47.316;-1.348;2023-09-08T13:59:02;33.60;99.90
4687;DHT22;2357;47.316;-1.348;2023-09-08T14:01:28;33.70;99.90
4687;DHT22;2357;47.316;-1.348;2023-09-08T14:03:55;33.90;99.90
4687;DHT22;2357;47.316;-1.348;2023-09-08T14:06:22;34.00;99.90
4687;DHT22;2357;47.316;-1.348;2023-09-08T14:08:48;34.00;99.90
4687;DHT22;2357;47.316;-1.348;2023-09-08T14:11:13;33.50;99.90
4687;DHT22;2357;47.316;-1.348;2023-09-08T14:13:39;33.50;99.90
4687;DHT22;2357;47.316;-1.348;2023-09-08T14:16:05;33.50;99.90
4687;DHT22;2357;47.316;-1.348;2023-09-08T14:18:30;33.50;99.90
4687;DHT22;2357;47.316;-1.348;2023-09-08T14:20:56;33.90;99.90
4687;DHT22;2357;47.316;-1.348;2023-09-08T14:23:22;34.10;99.90
4687;DHT22;2357;47.316;-1.348;2023-09-08T14:25:47;34.20;99.90
4687;DHT22;2357;47.316;-1.348;2023-09-08T14:28:13;34.30;99.90
4687;DHT22;2357;47.316;-1.348;2023-09-08T14:30:39;34.30;99.90
4687;DHT22;2357;47.316;-1.348;2023-09-08T14:33:06;34.40;99.90
4687;DHT22;2357;47.316;-1.348;2023-09-08T14:35:32;34.30;99.90
4687;DHT22;2357;47.316;-1.348;2023-09-08T14:37:58;34.40;99.90
4687;DHT22;2357;47.316;-1.348;2023-09-08T14:40:23;34.50;99.90
4687;DHT22;2357;47.316;-1.348;2023-09-08T14:42:49;34.50;99.90
4687;DHT22;2357;47.316;-1.348;2023-09-08T14:45:15;34.60;99.90
4687;DHT22;2357;47.316;-1.348;2023-09-08T14:47:41;34.50;99.90
4687;DHT22;2357;47.316;-1.348;2023-09-08T14:50:07;34.40;99.90
4687;DHT22;2357;47.316;-1.348;2023-09-08T14:52:32;34.40;99.90
4687;DHT22;2357;47.316;-1.348;2023-09-08T14:54:58;34.50;99.90
4687;DHT22;2357;47.316;-1.348;2023-09-08T14:57:24;34.40;99.90
4687;DHT22;2357;47.316;-1.348;2023-09-08T14:59:49;34.40;99.90
4687;DHT22;2357;47.316;-1.348;2023-09-08T15:02:19;34.30;99.90
4687;DHT22;2357;47.316;-1.348;2023-09-08T15:04:45;34.30;99.90
4687;DHT22;2357;47.316;-1.348;2023-09-08T15:07:10;34.40;99.90
4687;DHT22;2357;47.316;-1.348;2023-09-08T15:09:36;34.60;99.90
4687;DHT22;2357;47.316;-1.348;2023-09-08T15:12:02;34.40;99.90
4687;DHT22;2357;47.316;-1.348;2023-09-08T15:14:27;34.50;99.90
4687;DHT22;2357;47.316;-1.348;2023-09-08T15:16:53;34.30;99.90
4687;DHT22;2357;47.316;-1.348;2023-09-08T15:19:18;34.20;99.90
4687;DHT22;2357;47.316;-1.348;2023-09-08T15:21:44;34.30;99.90
4687;DHT22;2357;47.316;-1.348;2023-09-08T15:24:10;34.40;99.90
4687;DHT22;2357;47.316;-1.348;2023-09-08T15:26:35;34.40;99.90
4687;DHT22;2357;47.316;-1.348;2023-09-08T15:29:01;34.40;99.90
4687;DHT22;2357;47.316;-1.348;2023-09-08T15:31:26;34.50;99.90
4687;DHT22;2357;47.316;-1.348;2023-09-08T15:33:52;34.50;99.90
4687;DHT22;2357;47.316;-1.348;2023-09-08T15:36:18;34.60;99.90
4687;DHT22;2357;47.316;-1.348;2023-09-08T15:38:43;34.40;99.90
4687;DHT22;2357;47.316;-1.348;2023-09-08T15:43:37;34.40;99.90
4687;DHT22;2357;47.316;-1.348;2023-09-08T15:46:06;34.60;99.90
4687;DHT22;2357;47.316;-1.348;2023-09-08T15:48:36;34.50;99.90
4687;DHT22;2357;47.316;-1.348;2023-09-08T15:51:02;34.40;99.90